createdAt,value
2017-04-16T10:03:35.242Z,24.48
2017-04-16T10:04:36.647Z,24.50
2017-04-16T10:05:38.398Z,24.05
2017-04-16T10:06:39.811Z,18.35
2017-04-16T10:07:41.216Z,18.20
2017-04-16T10:08:42.656Z,20.43
2017-04-16T10:09:44.062Z,21.27
2017-04-16T10:10:45.531Z,21.55
2017-04-16T10:11:46.939Z,22.08
2017-04-16T10:12:49.009Z,22.20
2017-04-16T10:13:50.411Z,22.22
2017-04-16T10:14:51.832Z,22.30
2017-04-16T10:15:53.223Z,22.53
2017-04-16T10:16:54.631Z,22.57
2017-04-16T10:17:56.036Z,22.80
2017-04-16T10:18:57.752Z,22.69
2017-04-16T10:19:59.156Z,22.55
2017-04-16T10:21:02.859Z,22.60
2017-04-16T10:22:06.511Z,22.51
2017-04-16T10:23:07.954Z,22.50
2017-04-16T10:24:09.359Z,22.54
2017-04-16T10:25:10.768Z,22.53
2017-04-16T10:26:12.173Z,22.50
2017-04-16T10:27:13.580Z,22.48
2017-04-16T10:28:14.990Z,22.53
2017-04-16T10:29:19.835Z,22.47
2017-04-16T10:30:22.986Z,22.45
2017-04-16T10:31:25.143Z,22.45
2017-04-16T10:32:26.599Z,22.33
2017-04-16T10:33:28.008Z,22.30
2017-04-16T10:34:29.416Z,22.32
2017-04-16T10:35:30.824Z,22.36
2017-04-16T10:36:32.234Z,22.33
2017-04-16T10:37:33.917Z,22.35
2017-04-16T10:38:35.325Z,22.38
2017-04-16T10:39:36.799Z,22.41
2017-04-16T10:40:38.223Z,22.33
2017-04-16T10:41:39.641Z,22.38
2017-04-16T10:42:41.044Z,22.44
2017-04-16T10:43:42.450Z,22.38
2017-04-16T10:44:44.117Z,22.38
2017-04-16T10:45:46.039Z,22.48
2017-04-16T10:46:47.469Z,22.39
2017-04-16T10:47:48.877Z,22.45
2017-04-16T10:48:50.945Z,22.38
2017-04-16T10:49:52.348Z,22.48
2017-04-16T10:50:54.014Z,22.48
2017-04-16T10:51:59.433Z,22.41
2017-04-16T10:53:00.750Z,22.53
2017-04-16T10:54:02.155Z,22.69
2017-04-16T10:55:03.598Z,22.75
2017-04-16T10:56:05.006Z,22.68
2017-04-16T10:57:06.413Z,22.70
2017-04-16T10:58:07.852Z,22.63
2017-04-16T10:59:13.622Z,22.80
2017-04-16T11:00:15.033Z,22.66
2017-04-16T11:01:16.407Z,22.66
2017-04-16T11:02:17.813Z,22.69
2017-04-16T11:03:19.223Z,22.76
2017-04-16T11:04:20.629Z,22.68
2017-04-16T11:05:22.035Z,22.75
2017-04-16T11:06:23.457Z,22.62
2017-04-16T11:07:24.853Z,22.54
2017-04-16T11:08:26.284Z,22.65
2017-04-16T11:09:27.690Z,22.72
2017-04-16T11:10:29.165Z,22.68
2017-04-16T11:11:30.569Z,22.68
2017-04-16T11:12:31.975Z,22.65
2017-04-16T11:13:33.383Z,22.70
2017-04-16T11:14:34.798Z,22.65
2017-04-16T11:15:36.206Z,22.57
2017-04-16T11:16:37.614Z,22.54
2017-04-16T11:17:39.021Z,22.48
2017-04-16T11:18:40.487Z,22.48
2017-04-16T11:19:41.894Z,22.48
2017-04-16T11:20:43.302Z,22.51
2017-04-16T11:21:44.712Z,22.48
2017-04-16T11:22:46.151Z,22.43
2017-04-16T11:23:47.556Z,22.39
2017-04-16T11:24:48.963Z,22.39
2017-04-16T11:25:50.642Z,22.38
2017-04-16T11:26:52.046Z,22.30
2017-04-16T11:27:53.465Z,22.48
2017-04-16T11:28:54.873Z,22.41
2017-04-16T11:29:57.685Z,22.39
2017-04-16T11:31:01.625Z,22.41
2017-04-16T11:32:06.917Z,22.26
2017-04-16T11:33:08.519Z,22.32
2017-04-16T11:34:10.027Z,22.81
2017-04-16T11:35:11.411Z,22.94
2017-04-16T11:36:12.857Z,23.05
2017-04-16T11:37:14.279Z,23.18
2017-04-16T11:38:15.686Z,23.15
2017-04-16T11:39:17.093Z,23.13
2017-04-16T11:40:18.501Z,23.23
2017-04-16T11:41:19.911Z,23.23
2017-04-16T11:42:21.321Z,23.15
2017-04-16T11:43:22.757Z,23.10
2017-04-16T11:44:24.163Z,23.20
2017-04-16T11:45:25.569Z,23.18
2017-04-16T11:46:27.006Z,23.15
2017-04-16T11:47:28.416Z,23.10
2017-04-16T11:48:29.836Z,23.17
2017-04-16T11:49:31.245Z,23.10
2017-04-16T11:50:32.649Z,23.18
2017-04-16T11:51:34.076Z,23.17
2017-04-16T11:52:35.486Z,23.17
2017-04-16T11:53:36.892Z,23.20
2017-04-16T11:54:38.302Z,23.13
2017-04-16T11:55:39.710Z,23.17
2017-04-16T11:56:41.121Z,23.18
2017-04-16T11:57:46.757Z,23.17
2017-04-16T11:58:48.388Z,23.09
2017-04-16T11:59:49.799Z,23.06
2017-04-16T12:00:51.209Z,23.08
2017-04-16T12:01:52.621Z,23.06
2017-04-16T12:02:54.019Z,23.09
2017-04-16T12:03:55.440Z,23.05
2017-04-16T12:04:56.847Z,23.08
2017-04-16T12:05:58.255Z,23.02
2017-04-16T12:06:59.665Z,23.02
2017-04-16T12:08:01.073Z,22.99
2017-04-16T12:09:02.483Z,22.98
2017-04-16T12:10:03.890Z,22.94
2017-04-16T12:11:05.337Z,22.91
2017-04-16T12:12:06.744Z,22.96
2017-04-16T12:13:08.155Z,22.91
2017-04-16T12:14:10.826Z,22.94
2017-04-16T12:15:12.187Z,22.91
2017-04-16T12:16:13.601Z,22.98
2017-04-16T12:17:15.009Z,22.93
2017-04-16T12:18:17.834Z,22.94
2017-04-16T12:19:19.179Z,22.99
2017-04-16T12:20:20.585Z,23.10
2017-04-16T12:21:21.997Z,23.10
2017-04-16T12:22:24.385Z,23.15
2017-04-16T12:23:25.785Z,23.17
2017-04-16T12:24:27.214Z,23.09
2017-04-16T12:25:28.621Z,23.17
2017-04-16T12:26:30.031Z,23.00
2017-04-16T12:27:31.437Z,22.99
2017-04-16T12:28:32.845Z,23.02
2017-04-16T12:29:34.256Z,23.03
2017-04-16T12:30:35.665Z,23.03
2017-04-16T12:31:37.096Z,23.00
2017-04-16T12:32:38.505Z,23.03
2017-04-16T12:33:39.914Z,23.09
2017-04-16T12:34:41.323Z,23.10
2017-04-16T12:35:42.733Z,22.99
2017-04-16T12:36:44.141Z,23.05
2017-04-16T12:37:45.549Z,22.99
2017-04-16T12:38:46.959Z,22.96
2017-04-16T12:39:51.556Z,23.02
2017-04-16T12:40:53.635Z,22.85
2017-04-16T12:41:55.044Z,22.70
2017-04-16T12:42:56.403Z,22.57
2017-04-16T12:43:57.813Z,22.47
2017-04-16T12:45:00.924Z,22.45
2017-04-16T12:46:02.328Z,22.35
2017-04-16T12:47:04.430Z,22.28
2017-04-16T12:48:06.035Z,22.26
2017-04-16T12:49:07.451Z,22.26
2017-04-16T12:50:08.904Z,22.25
2017-04-16T12:51:14.610Z,22.23
2017-04-16T12:52:17.953Z,22.23
2017-04-16T12:53:19.363Z,22.22
2017-04-16T12:54:21.150Z,22.18
2017-04-16T12:55:22.557Z,22.17
2017-04-16T12:56:24.065Z,22.17
2017-04-16T12:57:25.474Z,22.08
2017-04-16T12:58:26.887Z,22.13
2017-04-16T12:59:28.290Z,22.02
2017-04-16T13:00:29.710Z,22.10
2017-04-16T13:01:31.115Z,22.07
2017-04-16T13:02:32.519Z,22.17
2017-04-16T13:03:34.192Z,22.02
2017-04-16T13:04:35.598Z,22.14
2017-04-16T13:05:37.059Z,22.07
2017-04-16T13:06:42.324Z,22.13
2017-04-16T13:07:47.383Z,21.99
2017-04-16T13:08:49.078Z,22.08
2017-04-16T13:09:51.319Z,22.07
2017-04-16T13:10:53.369Z,22.08
2017-04-16T13:11:54.776Z,22.04
2017-04-16T13:12:56.234Z,22.06
2017-04-16T13:14:00.113Z,22.13
2017-04-16T13:15:01.520Z,22.00
2017-04-16T13:16:02.927Z,22.07
2017-04-16T13:17:07.641Z,22.00
2017-04-16T13:18:08.998Z,22.07
2017-04-16T13:19:13.269Z,22.02
2017-04-16T13:20:14.673Z,22.20
2017-04-16T13:21:16.080Z,22.04
2017-04-16T13:22:17.757Z,22.06
2017-04-16T13:23:20.239Z,22.11
2017-04-16T13:24:22.193Z,22.04
2017-04-16T13:25:23.602Z,22.04
2017-04-16T13:26:25.008Z,21.98
2017-04-16T13:27:26.415Z,22.15
2017-04-16T13:28:27.823Z,22.18
2017-04-16T13:29:33.197Z,22.15
2017-04-16T13:30:39.440Z,22.11
2017-04-16T13:31:45.733Z,22.10
2017-04-16T13:32:51.630Z,22.13
2017-04-16T13:33:53.938Z,22.14
2017-04-16T13:34:55.343Z,22.07
2017-04-16T13:35:56.754Z,22.07
2017-04-16T13:36:58.178Z,22.04
2017-04-16T13:37:59.586Z,22.11
2017-04-16T13:39:05.108Z,22.04
2017-04-16T13:40:06.474Z,22.15
2017-04-16T13:41:09.000Z,22.10
2017-04-16T13:42:12.530Z,22.07
2017-04-16T13:43:13.956Z,22.08
2017-04-16T13:44:15.365Z,22.07
2017-04-16T13:45:16.771Z,22.17
2017-04-16T13:46:18.335Z,22.17
2017-04-16T13:47:24.217Z,22.17
2017-04-16T13:48:25.576Z,22.11
2017-04-16T13:49:28.067Z,22.15
2017-04-16T13:50:29.432Z,22.06
2017-04-16T13:51:31.502Z,22.13
2017-04-16T13:52:35.086Z,22.10
2017-04-16T13:53:36.443Z,22.10
2017-04-16T13:54:37.847Z,22.22
2017-04-16T13:55:39.252Z,22.39
2017-04-16T13:56:40.661Z,22.54
2017-04-16T13:57:42.081Z,22.62
2017-04-16T13:58:43.486Z,22.70
2017-04-16T13:59:44.895Z,22.69
2017-04-16T14:00:46.303Z,22.76
2017-04-16T14:01:48.139Z,22.78
2017-04-16T14:02:49.552Z,22.69
2017-04-16T14:03:50.954Z,22.81
2017-04-16T14:04:52.402Z,22.85
2017-04-16T14:05:53.855Z,22.88
2017-04-16T14:06:55.253Z,22.99
2017-04-16T14:07:56.663Z,22.90
2017-04-16T14:08:59.452Z,22.96
2017-04-16T14:10:00.863Z,23.00
2017-04-16T14:11:02.272Z,23.02
2017-04-16T14:12:03.740Z,23.05
2017-04-16T14:13:05.148Z,23.13
2017-04-16T14:14:06.555Z,23.10
2017-04-16T14:15:07.971Z,23.21
2017-04-16T14:16:09.375Z,23.18
2017-04-16T14:17:10.797Z,23.13
2017-04-16T14:18:12.206Z,23.25
2017-04-16T14:19:13.613Z,23.23
2017-04-16T14:20:15.034Z,23.23
2017-04-16T14:21:16.438Z,23.21
2017-04-16T14:22:17.852Z,23.27
2017-04-16T14:23:19.295Z,23.23
2017-04-16T14:24:20.705Z,23.23
2017-04-16T14:25:22.117Z,23.28
2017-04-16T14:26:23.522Z,23.24
2017-04-16T14:27:24.970Z,23.32
2017-04-16T14:28:26.379Z,23.21
2017-04-16T14:29:27.792Z,23.23
2017-04-16T14:30:29.201Z,23.31
2017-04-16T14:31:30.608Z,23.27
2017-04-16T14:32:32.017Z,23.24
2017-04-16T14:33:33.424Z,23.24
2017-04-16T14:34:34.834Z,23.34
2017-04-16T14:35:36.282Z,23.31
2017-04-16T14:36:37.689Z,23.27
2017-04-16T14:37:39.098Z,23.31
2017-04-16T14:38:40.510Z,23.21
2017-04-16T14:39:41.916Z,23.27
2017-04-16T14:40:43.324Z,23.32
2017-04-16T14:41:44.732Z,23.24
2017-04-16T14:42:46.180Z,23.21
2017-04-16T14:43:47.775Z,23.09
2017-04-16T14:44:49.189Z,22.91
2017-04-16T14:45:50.603Z,22.83
2017-04-16T14:46:52.030Z,22.84
2017-04-16T14:47:53.436Z,22.80
2017-04-16T14:48:54.841Z,22.70
2017-04-16T14:49:56.259Z,22.68
2017-04-16T14:50:57.702Z,22.72
2017-04-16T14:51:59.115Z,22.66
2017-04-16T14:53:00.520Z,22.60
2017-04-16T14:54:01.928Z,22.63
2017-04-16T14:55:03.365Z,22.59
2017-04-16T14:56:04.771Z,22.60
2017-04-16T14:57:06.175Z,22.60
2017-04-16T14:58:07.591Z,22.59
2017-04-16T14:59:09.010Z,22.48
2017-04-16T15:00:10.416Z,22.47
2017-04-16T15:01:11.828Z,22.36
2017-04-16T15:02:13.234Z,22.50
2017-04-16T15:03:14.592Z,22.48
2017-04-16T15:04:16.000Z,22.48
2017-04-16T15:05:17.407Z,22.51
2017-04-16T15:06:18.848Z,22.55
2017-04-16T15:07:20.255Z,22.60
2017-04-16T15:08:21.665Z,22.59
2017-04-16T15:09:23.073Z,22.66
2017-04-16T15:10:24.478Z,22.51
2017-04-16T15:11:25.892Z,17.27
2017-04-16T15:12:27.328Z,15.47
2017-04-16T15:13:28.739Z,15.02
2017-04-16T15:14:30.152Z,14.17
2017-04-16T15:15:31.619Z,14.36
2017-04-16T15:16:33.027Z,15.22
2017-04-16T15:17:34.435Z,15.42
2017-04-16T15:18:35.843Z,14.88
2017-04-16T15:19:37.250Z,14.82
2017-04-16T15:20:38.653Z,14.47
2017-04-16T15:21:40.057Z,14.22
2017-04-16T15:22:41.464Z,14.10
2017-04-16T15:23:42.870Z,13.57
2017-04-16T15:24:44.274Z,12.98
2017-04-16T15:25:45.703Z,12.83
2017-04-16T15:26:47.099Z,12.58
2017-04-16T15:27:48.512Z,12.62
2017-04-16T15:28:49.913Z,12.35
2017-04-16T15:29:51.315Z,13.90
2017-04-16T15:30:52.716Z,18.65
2017-04-16T15:31:54.128Z,20.29
2017-04-16T15:32:55.531Z,21.00
2017-04-16T15:33:57.628Z,21.40
2017-04-16T15:34:59.027Z,21.57
2017-04-16T15:35:58.153Z,21.98
2017-04-16T15:36:59.558Z,22.08
2017-04-16T15:37:48.151Z,22.23
2017-04-16T15:39:29.983Z,22.33
2017-04-16T15:40:49.945Z,22.28
2017-04-16T15:41:51.351Z,22.35
2017-04-16T15:42:57.001Z,22.30
2017-04-16T15:44:00.210Z,22.33
2017-04-16T15:45:01.568Z,22.35
2017-04-16T15:46:02.976Z,22.50
2017-04-16T15:47:04.269Z,22.55
2017-04-16T15:50:26.777Z,22.43
2017-04-16T15:51:28.187Z,22.29
2017-04-16T15:52:34.508Z,22.32
2017-04-16T15:53:38.949Z,22.25
2017-04-16T15:54:41.079Z,22.28
2017-04-16T15:55:45.253Z,22.22
2017-04-16T15:56:47.536Z,22.23
2017-04-16T15:57:49.574Z,22.20
2017-04-16T15:58:51.797Z,22.23
2017-04-16T15:59:53.185Z,22.54
2017-04-16T16:00:56.678Z,22.73
2017-04-16T16:01:58.704Z,22.66
2017-04-16T16:03:03.674Z,22.55
2017-04-16T16:04:07.663Z,22.80
2017-04-16T16:05:11.385Z,22.83
2017-04-16T16:06:15.495Z,22.87
2017-04-16T16:07:17.441Z,22.75
2017-04-16T16:08:23.340Z,22.78
2017-04-16T16:09:27.905Z,22.83
2017-04-16T16:10:30.190Z,22.88
2017-04-16T16:11:34.841Z,22.85
2017-04-16T16:12:39.005Z,22.93
2017-04-16T16:13:42.356Z,22.93
2017-04-16T16:14:47.081Z,22.91
2017-04-16T16:15:50.905Z,22.93
2017-04-16T16:16:52.788Z,22.91
2017-04-16T16:17:54.375Z,22.91
2017-04-16T16:18:56.648Z,23.00
2017-04-16T16:19:59.065Z,22.91
2017-04-16T16:21:00.549Z,22.91
2017-04-16T16:22:03.753Z,22.87
2017-04-16T16:23:07.979Z,22.81
2017-04-16T16:24:11.696Z,22.87
2017-04-16T16:25:15.946Z,22.85
2017-04-16T16:26:19.347Z,22.85
2017-04-16T16:27:23.025Z,22.91
2017-04-16T16:28:28.047Z,22.87
2017-04-16T16:29:29.605Z,23.15
2017-04-16T16:30:31.013Z,23.51
2017-04-16T16:31:32.546Z,23.51
2017-04-16T16:32:34.202Z,23.93
2017-04-16T16:34:22.694Z,23.54
2017-04-16T16:35:24.137Z,23.41
2017-04-16T16:35:57.148Z,23.15
2017-04-16T16:38:44.114Z,22.93
2017-04-16T16:39:45.535Z,22.83
2017-04-16T16:40:46.942Z,22.81
2017-04-16T16:41:48.350Z,22.75
2017-04-16T16:42:49.760Z,22.78
2017-04-16T16:43:51.165Z,22.84
2017-04-16T16:44:52.673Z,22.75
2017-04-16T16:45:54.077Z,22.63
2017-04-16T16:46:55.482Z,22.57
2017-04-16T16:47:56.887Z,22.51
2017-04-16T16:48:58.307Z,22.45
2017-04-16T16:49:59.711Z,22.48
2017-04-16T16:51:01.118Z,22.45
2017-04-16T16:52:02.525Z,22.48
2017-04-16T16:53:03.934Z,22.41
2017-04-16T16:54:05.342Z,22.47
2017-04-16T16:55:06.766Z,22.43
2017-04-16T16:56:08.176Z,22.41
2017-04-16T16:57:09.580Z,22.47
2017-04-16T16:58:10.988Z,22.36
2017-04-16T16:59:12.394Z,22.38
2017-04-16T17:00:13.798Z,22.39
2017-04-16T17:01:15.208Z,22.35
2017-04-16T17:02:16.613Z,22.41
2017-04-16T17:03:18.020Z,22.41
2017-04-16T17:04:19.428Z,22.45
2017-04-16T17:05:20.836Z,22.41
2017-04-16T17:06:22.243Z,22.48
2017-04-16T17:07:23.657Z,22.45
2017-04-16T17:08:25.064Z,22.53
2017-04-16T17:09:26.476Z,22.41
2017-04-16T17:10:27.912Z,22.54
2017-04-16T17:11:29.337Z,22.45
2017-04-16T17:12:30.850Z,22.50
2017-04-16T17:13:32.261Z,22.51
2017-04-16T17:14:34.080Z,22.50
2017-04-16T17:15:35.461Z,22.51
2017-04-16T17:16:36.868Z,22.53
2017-04-16T17:17:38.618Z,22.57
2017-04-16T17:18:40.027Z,22.59
2017-04-16T17:19:41.438Z,22.54
2017-04-16T17:20:42.840Z,22.53
2017-04-16T17:21:46.319Z,22.57
2017-04-16T17:22:47.733Z,22.59
2017-04-16T17:23:49.155Z,22.53
2017-04-16T17:24:50.560Z,22.59
2017-04-16T17:25:51.967Z,22.57
2017-04-16T17:26:53.374Z,22.53
2017-04-16T17:27:54.776Z,22.57
2017-04-16T17:28:56.196Z,22.50
2017-04-16T17:29:57.603Z,22.54
2017-04-16T17:30:59.010Z,22.53
2017-04-16T17:32:00.511Z,22.57
2017-04-16T17:33:01.919Z,22.60
2017-04-16T17:34:03.327Z,22.53
2017-04-16T17:35:04.732Z,22.53
2017-04-16T17:36:06.135Z,22.54
2017-04-16T17:37:07.563Z,22.65
2017-04-16T17:38:08.968Z,22.68
2017-04-16T17:39:10.374Z,22.70
2017-04-16T17:40:11.797Z,22.70
2017-04-16T17:41:13.203Z,22.68
2017-04-16T17:42:14.645Z,22.70
2017-04-16T17:43:16.050Z,22.72
2017-04-16T17:44:17.454Z,22.68
2017-04-16T17:45:18.860Z,22.72
2017-04-16T17:46:20.268Z,22.68
2017-04-16T17:47:21.674Z,22.65
2017-04-16T17:48:23.093Z,22.66
2017-04-16T17:49:24.506Z,22.66
2017-04-16T17:50:25.939Z,22.60
2017-04-16T17:51:27.341Z,22.59
2017-04-16T17:52:28.749Z,22.51
2017-04-16T17:53:30.157Z,22.53
2017-04-16T17:54:31.568Z,22.54
2017-04-16T17:55:32.974Z,22.53
2017-04-16T17:56:34.379Z,22.55
2017-04-16T17:57:35.789Z,22.44
2017-04-16T17:58:37.192Z,22.47
2017-04-16T17:59:38.602Z,22.43
2017-04-16T18:00:40.034Z,22.44
2017-04-16T18:01:41.485Z,22.36
2017-04-16T18:02:42.891Z,22.45
2017-04-16T18:03:44.298Z,22.35
2017-04-16T18:04:45.709Z,22.38
2017-04-16T18:05:47.116Z,22.32
2017-04-16T18:06:48.521Z,22.33
2017-04-16T18:07:49.926Z,22.29
2017-04-16T18:08:51.332Z,22.28
2017-04-16T18:09:52.738Z,22.38
2017-04-16T18:10:54.144Z,22.30
2017-04-16T18:11:55.548Z,22.28
2017-04-16T18:12:57.004Z,22.22
2017-04-16T18:13:58.411Z,22.25
2017-04-16T18:14:59.817Z,22.25
2017-04-16T18:16:01.227Z,22.25
2017-04-16T18:17:02.643Z,22.25
2017-04-16T18:18:06.066Z,22.25
2017-04-16T18:19:07.432Z,22.25
2017-04-16T18:20:08.838Z,22.14
2017-04-16T18:21:10.245Z,22.18
2017-04-16T18:22:11.649Z,22.18
2017-04-16T18:23:13.058Z,22.17
2017-04-16T18:24:14.463Z,22.06
2017-04-16T18:25:15.868Z,22.02
2017-04-16T18:26:17.302Z,22.14
2017-04-16T18:27:18.704Z,21.96
2017-04-16T18:28:20.112Z,22.08
2017-04-16T18:29:25.174Z,22.13
2017-04-16T18:30:28.167Z,22.10
2017-04-16T18:31:29.573Z,22.00
2017-04-16T18:32:30.985Z,21.99
2017-04-16T18:33:32.390Z,22.13
2017-04-16T18:34:33.869Z,22.11
2017-04-16T18:35:35.254Z,22.14
2017-04-16T18:36:36.661Z,22.10
2017-04-16T18:37:38.065Z,21.99
2017-04-16T18:38:39.487Z,21.96
2017-04-16T18:39:40.904Z,22.07
2017-04-16T18:40:42.315Z,22.02
2017-04-16T18:41:44.396Z,22.02
2017-04-16T18:42:45.888Z,22.04
2017-04-16T18:43:47.825Z,21.89
2017-04-16T18:44:49.719Z,21.85
2017-04-16T18:45:52.103Z,21.85
2017-04-16T18:46:56.707Z,21.72
2017-04-16T18:48:01.976Z,21.79
2017-04-16T18:49:06.135Z,21.77
2017-04-16T18:50:07.547Z,21.73
2017-04-16T18:51:10.641Z,21.79
2017-04-16T18:52:12.423Z,21.73
2017-04-16T18:53:13.836Z,21.75
2017-04-16T18:54:15.291Z,21.80
2017-04-16T18:55:17.211Z,21.73
2017-04-16T18:56:18.797Z,21.77
2017-04-16T18:57:20.446Z,21.72
2017-04-16T18:58:21.862Z,21.61
2017-04-16T18:59:23.271Z,21.76
2017-04-16T19:00:24.673Z,21.67
2017-04-16T19:01:26.090Z,21.75
2017-04-16T19:02:27.535Z,21.75
2017-04-16T19:03:29.041Z,21.73
2017-04-16T19:04:30.412Z,21.76
2017-04-16T19:05:32.211Z,21.69
2017-04-16T19:06:33.617Z,21.75
2017-04-16T19:07:38.415Z,21.72
2017-04-16T19:08:39.774Z,21.73
2017-04-16T19:09:41.401Z,21.75
2017-04-16T19:10:46.799Z,21.76
2017-04-16T19:11:50.140Z,21.70
2017-04-16T19:12:51.544Z,21.79
2017-04-16T19:13:52.964Z,21.75
2017-04-16T19:14:54.664Z,21.70
2017-04-16T19:15:56.077Z,21.72
2017-04-16T19:16:57.491Z,21.75
2017-04-16T19:17:58.896Z,21.70
2017-04-16T19:19:00.302Z,21.62
2017-04-16T19:20:01.706Z,21.77
2017-04-16T19:21:03.114Z,21.64
2017-04-16T19:22:07.607Z,21.61
2017-04-16T19:23:09.460Z,21.70
2017-04-16T19:24:11.160Z,21.73
2017-04-16T19:25:12.564Z,21.62
2017-04-16T19:26:14.292Z,21.62
2017-04-16T19:27:15.700Z,21.61
2017-04-16T19:28:17.123Z,21.62
2017-04-16T19:29:18.556Z,21.75
2017-04-16T19:30:20.047Z,21.62
2017-04-16T19:31:21.450Z,21.66
2017-04-16T19:32:23.381Z,21.73
2017-04-16T19:33:25.673Z,21.75
2017-04-16T19:34:28.362Z,21.75
2017-04-16T19:35:29.768Z,21.69
2017-04-16T19:36:31.172Z,21.77
2017-04-16T19:37:32.575Z,21.70
2017-04-16T19:38:34.255Z,21.72
2017-04-16T19:39:35.728Z,21.73
2017-04-16T19:40:37.133Z,21.72
2017-04-16T19:41:38.538Z,21.77
2017-04-16T19:42:39.950Z,21.73
2017-04-16T19:43:41.508Z,21.77
2017-04-16T19:44:46.645Z,21.70
2017-04-16T19:45:48.008Z,21.77
2017-04-16T19:46:49.704Z,21.79
2017-04-16T19:47:51.112Z,21.73
2017-04-16T19:48:52.727Z,21.82
2017-04-16T19:49:54.172Z,21.75
2017-04-16T19:50:55.603Z,21.79
2017-04-16T19:51:57.292Z,21.76
2017-04-16T19:52:58.733Z,21.99
2017-04-16T19:54:00.139Z,21.98
2017-04-16T19:55:01.631Z,21.99
2017-04-16T19:56:03.043Z,22.04
2017-04-16T19:57:04.472Z,21.99
2017-04-16T19:58:05.880Z,21.98
2017-04-16T19:59:08.466Z,21.99
2017-04-16T20:00:09.841Z,21.89
2017-04-16T20:01:11.288Z,21.85
2017-04-16T20:02:12.810Z,21.95
2017-04-16T20:03:14.221Z,21.95
2017-04-16T20:04:15.623Z,21.93
2017-04-16T20:05:17.030Z,21.91
2017-04-16T20:06:18.438Z,21.89
2017-04-16T20:07:19.851Z,21.87
2017-04-16T20:08:21.272Z,21.91
2017-04-16T20:09:22.670Z,21.89
2017-04-16T20:10:25.948Z,21.87
2017-04-16T20:11:27.418Z,21.92
2017-04-16T20:12:30.493Z,21.85
2017-04-16T20:13:32.251Z,21.92
2017-04-16T20:14:34.628Z,21.92
2017-04-16T20:15:38.940Z,21.91
2017-04-16T20:16:44.886Z,21.87
2017-04-16T20:17:50.245Z,21.77
2017-04-16T20:18:52.554Z,21.89
2017-04-16T20:19:53.918Z,21.80
2017-04-16T20:20:55.324Z,21.92
2017-04-16T20:21:59.879Z,21.91
2017-04-16T20:23:03.892Z,21.82
2017-04-16T20:24:05.294Z,21.89
2017-04-16T20:25:10.804Z,21.76
2017-04-16T20:26:12.156Z,21.83
2017-04-16T20:27:18.772Z,21.92
2017-04-16T20:28:22.380Z,21.72
2017-04-16T20:29:23.744Z,21.83
2017-04-16T20:30:29.153Z,21.83
2017-04-16T20:31:33.908Z,21.79
2017-04-16T20:32:37.826Z,21.79
2017-04-16T20:33:42.300Z,21.76
2017-04-16T20:34:48.425Z,21.75
2017-04-16T20:35:50.641Z,21.83
2017-04-16T20:36:52.880Z,21.92
2017-04-16T20:37:54.283Z,21.72
2017-04-16T20:38:56.303Z,21.77
2017-04-16T20:39:57.729Z,21.75
2017-04-16T20:40:59.138Z,21.73
2017-04-16T20:42:00.545Z,21.85
2017-04-16T20:43:01.953Z,21.73
2017-04-16T20:44:03.365Z,21.73
2017-04-16T20:45:04.770Z,21.69
2017-04-16T20:46:06.181Z,21.79
2017-04-16T20:47:07.587Z,21.79
2017-04-16T20:48:09.202Z,21.77
2017-04-16T20:49:10.823Z,21.80
2017-04-16T20:50:12.231Z,21.80
2017-04-16T20:51:13.639Z,21.73
2017-04-16T20:52:15.042Z,21.82
2017-04-16T20:53:16.521Z,21.75
2017-04-16T20:54:17.925Z,21.76
2017-04-16T20:55:19.330Z,21.76
2017-04-16T20:56:20.735Z,21.75
2017-04-16T20:57:22.138Z,21.73
2017-04-16T20:58:23.542Z,21.72
2017-04-16T20:59:24.949Z,21.77
2017-04-16T21:00:26.349Z,21.75
2017-04-16T21:01:27.755Z,21.76
2017-04-16T21:02:29.160Z,21.73
2017-04-16T21:03:30.567Z,21.70
2017-04-16T21:04:31.980Z,21.70
2017-04-16T21:05:33.381Z,21.75
2017-04-16T21:06:34.787Z,21.77
2017-04-16T21:07:36.204Z,21.72
2017-04-16T21:08:37.612Z,21.76
2017-04-16T21:09:39.018Z,21.76
2017-04-16T21:10:40.422Z,21.73
2017-04-16T21:11:41.826Z,21.69
2017-04-16T21:12:43.245Z,21.64
2017-04-16T21:13:44.660Z,21.61
2017-04-16T21:14:46.066Z,21.66
2017-04-16T21:15:47.470Z,21.66
2017-04-16T21:16:48.888Z,21.64
2017-04-16T21:17:50.317Z,21.75
2017-04-16T21:18:51.722Z,21.62
2017-04-16T21:19:53.127Z,21.62
2017-04-16T21:20:54.529Z,21.61
2017-04-16T21:21:55.941Z,21.64
2017-04-16T21:22:57.346Z,21.61
2017-04-16T21:23:58.758Z,21.61
2017-04-16T21:25:00.163Z,21.54
2017-04-16T21:26:01.569Z,21.60
2017-04-16T21:27:02.974Z,21.60
2017-04-16T21:28:04.381Z,21.62
2017-04-16T21:29:05.814Z,21.64
2017-04-16T21:30:07.221Z,21.58
2017-04-16T21:31:08.626Z,21.62
2017-04-16T21:32:10.032Z,21.62
2017-04-16T21:33:11.440Z,21.64
2017-04-16T21:34:12.848Z,21.62
2017-04-16T21:35:14.254Z,21.55
2017-04-16T21:36:15.660Z,21.55
2017-04-16T21:37:17.069Z,21.61
2017-04-16T21:38:18.475Z,21.54
2017-04-16T21:39:19.881Z,21.55
2017-04-16T21:40:21.286Z,21.55
2017-04-16T21:41:22.691Z,21.55
2017-04-16T21:42:24.096Z,21.57
2017-04-16T21:43:25.504Z,21.55
2017-04-16T21:44:26.911Z,21.52
2017-04-16T21:45:28.317Z,21.52
2017-04-16T21:46:29.678Z,21.52
2017-04-16T21:47:31.083Z,21.55
2017-04-16T21:48:32.488Z,21.52
2017-04-16T21:49:33.895Z,21.50
2017-04-16T21:50:35.302Z,21.51
2017-04-16T21:51:36.709Z,21.48
2017-04-16T21:52:38.117Z,21.50
2017-04-16T21:53:39.520Z,21.51
2017-04-16T21:54:40.927Z,21.52
2017-04-16T21:55:42.329Z,21.57
2017-04-16T21:56:43.735Z,21.52
2017-04-16T21:57:45.095Z,21.60
2017-04-16T21:58:46.502Z,21.54
2017-04-16T21:59:47.927Z,21.54
2017-04-16T22:00:49.338Z,21.50
2017-04-16T22:01:50.747Z,21.57
2017-04-16T22:02:52.150Z,21.55
2017-04-16T22:03:53.555Z,21.48
2017-04-16T22:04:54.960Z,21.54
2017-04-16T22:05:56.365Z,21.48
2017-04-16T22:06:57.771Z,21.51
2017-04-16T22:07:59.175Z,21.54
2017-04-16T22:09:00.581Z,21.51
2017-04-16T22:10:02.077Z,21.54
2017-04-16T22:11:03.445Z,21.40
2017-04-16T22:12:04.849Z,21.39
2017-04-16T22:13:06.255Z,21.52
2017-04-16T22:14:07.659Z,21.37
2017-04-16T22:15:09.063Z,21.43
2017-04-16T22:16:10.470Z,21.46
2017-04-16T22:17:13.336Z,21.37
2017-04-16T22:18:14.749Z,21.45
2017-04-16T22:19:16.156Z,21.39
2017-04-16T22:20:17.514Z,21.35
2017-04-16T22:21:18.919Z,21.35
2017-04-16T22:22:20.324Z,21.40
2017-04-16T22:23:21.728Z,21.37
2017-04-16T22:24:23.134Z,21.33
2017-04-16T22:25:24.543Z,21.33
2017-04-16T22:26:25.950Z,21.35
2017-04-16T22:27:27.351Z,21.29
2017-04-16T22:28:28.757Z,21.33
2017-04-16T22:29:30.163Z,21.29
2017-04-16T22:30:31.569Z,21.37
2017-04-16T22:31:32.977Z,21.32
2017-04-16T22:32:34.382Z,21.32
2017-04-16T22:33:35.787Z,21.27
2017-04-16T22:34:37.193Z,21.32
2017-04-16T22:35:38.597Z,21.30
2017-04-16T22:36:39.999Z,21.32
2017-04-16T22:37:41.408Z,21.25
2017-04-16T22:38:42.812Z,21.24
2017-04-16T22:39:44.245Z,21.22
2017-04-16T22:40:45.646Z,21.22
2017-04-16T22:41:47.051Z,21.21
2017-04-16T22:42:48.458Z,21.25
2017-04-16T22:43:49.862Z,21.25
2017-04-16T22:44:51.268Z,21.18
2017-04-16T22:45:52.669Z,21.21
2017-04-16T22:46:54.076Z,21.22
2017-04-16T22:47:55.481Z,21.15
2017-04-16T22:48:56.885Z,21.21
2017-04-16T22:49:58.291Z,21.12
2017-04-16T22:50:59.695Z,21.14
2017-04-16T22:52:01.101Z,21.22
2017-04-16T22:53:02.509Z,21.12
2017-04-16T22:54:03.917Z,21.12
2017-04-16T22:55:05.320Z,21.09
2017-04-16T22:56:06.725Z,21.07
2017-04-16T22:57:08.129Z,21.07
2017-04-16T22:58:09.535Z,21.12
2017-04-16T22:59:10.943Z,21.09
2017-04-16T23:00:12.343Z,21.02
2017-04-16T23:01:13.746Z,21.11
2017-04-16T23:02:15.154Z,21.07
2017-04-16T23:03:16.558Z,21.09
2017-04-16T23:04:17.964Z,21.02
2017-04-16T23:05:19.371Z,21.03
2017-04-16T23:06:20.774Z,21.02
2017-04-16T23:07:22.184Z,20.96
2017-04-16T23:08:23.595Z,20.97
2017-04-16T23:09:24.999Z,20.95
2017-04-16T23:10:26.404Z,20.97
2017-04-16T23:11:27.810Z,21.02
2017-04-16T23:12:29.219Z,21.02
2017-04-16T23:13:30.624Z,20.99
2017-04-16T23:14:31.983Z,21.03
2017-04-16T23:15:33.389Z,20.99
2017-04-16T23:16:34.800Z,20.97
2017-04-16T23:17:36.208Z,20.97
2017-04-16T23:18:37.609Z,20.99
2017-04-16T23:19:39.012Z,21.00
2017-04-16T23:20:40.414Z,20.96
2017-04-16T23:21:41.821Z,21.00
2017-04-16T23:22:43.227Z,20.90
2017-04-16T23:23:44.630Z,20.85